Time;durP1;ratioP1;P1;durP2;ratioP2;P2;SDS_P1;SDS_P2;PMS_P1;PMS_P2;Temp;Humidity;BMP_temperature;BMP_pressure;BME280_temperature;BME280_humidity;BME280_pressure;Samples;Min_cycle;Max_cycle;Signal;HPM_P1;HPM_P2
2024/01/18 00:01:13;;;;;;;11.40;6.83;;;1.00;99.90;0.70;97754.00;;;;4956558;28;102390;-69
2024/01/18 00:03:39;;;;;;;14.90;7.87;;;1.00;99.90;0.60;97757.00;;;;4951230;28;88179;-67
2024/01/18 00:06:06;;;;;;;10.73;7.47;;;1.00;99.90;0.70;97750.00;;;;4958715;28;87892;-68
2024/01/18 00:08:32;;;;;;;11.37;7.67;;;1.60;99.90;0.70;97760.00;;;;4959525;28;102364;-67
2024/01/18 00:11:00;;;;;;;13.07;8.13;;;1.10;99.90;0.70;97774.00;;;;4956964;28;108016;-68
2024/01/18 00:13:27;;;;;;;10.93;8.53;;;0.90;99.90;0.70;97777.00;;;;4956971;28;88747;-69
2024/01/18 00:15:52;;;;;;;11.37;8.13;;;0.90;99.90;0.70;97761.00;;;;4953851;28;88414;-67
2024/01/18 00:18:18;;;;;;;15.20;8.67;;;1.00;99.90;0.70;97781.00;;;;4953684;28;119191;-68
2024/01/18 00:20:43;;;;;;;13.47;7.07;;;1.00;99.90;0.70;97774.00;;;;4953105;28;117101;-68
2024/01/18 00:23:09;;;;;;;13.17;8.07;;;1.10;99.90;0.70;97778.00;;;;4951525;28;110989;-68
2024/01/18 00:25:35;;;;;;;12.30;6.80;;;1.00;99.90;0.70;97761.00;;;;4952507;28;87780;-69
2024/01/18 00:28:00;;;;;;;14.37;7.90;;;1.00;99.90;0.70;97757.00;;;;4965594;28;117923;-68
2024/01/18 00:30:26;;;;;;;12.00;8.10;;;0.90;99.90;0.70;97769.00;;;;4959430;28;118208;-68
2024/01/18 00:32:52;;;;;;;9.50;6.73;;;0.70;99.90;0.70;97774.00;;;;4957073;28;108624;-70
2024/01/18 00:35:17;;;;;;;10.47;7.57;;;1.00;99.90;0.60;97775.00;;;;4974363;28;108485;-68
2024/01/18 00:37:43;;;;;;;12.83;6.50;;;1.00;99.90;0.70;97774.00;;;;4955215;28;117786;-69
2024/01/18 00:40:12;;;;;;;12.23;6.93;;;1.00;99.90;0.60;97780.00;;;;4957498;28;117166;-69
2024/01/18 00:42:38;;;;;;;13.87;7.57;;;0.90;99.90;0.60;97775.00;;;;4955922;28;90139;-70
2024/01/18 00:45:04;;;;;;;7.07;5.60;;;0.90;99.90;0.60;97784.00;;;;4954924;28;107769;-68
2024/01/18 00:47:30;;;;;;;8.07;6.53;;;1.00;99.90;0.60;97789.00;;;;4955145;28;109120;-69
2024/01/18 00:49:56;;;;;;;14.23;7.50;;;0.80;99.90;0.50;97795.00;;;;4951975;28;107968;-69
2024/01/18 00:52:21;;;;;;;11.07;6.13;;;0.90;99.90;0.50;97793.00;;;;4958064;28;109859;-68
2024/01/18 00:54:47;;;;;;;13.43;6.73;;;0.80;99.90;0.50;97790.00;;;;4960506;28;87841;-69
2024/01/18 00:57:13;;;;;;;10.57;6.37;;;0.80;99.90;0.50;97814.00;;;;4958932;28;90699;-69
2024/01/18 00:59:38;;;;;;;8.77;6.90;;;0.80;99.90;0.40;97816.00;;;;4958904;28;104073;-69
2024/01/18 01:02:06;;;;;;;7.93;5.87;;;0.70;99.90;0.40;97806.00;;;;4956903;28;110441;-68
2024/01/18 01:04:31;;;;;;;10.07;7.43;;;0.80;99.90;0.40;97810.00;;;;4958403;28;89395;-68
2024/01/18 01:06:57;;;;;;;11.27;7.33;;;0.80;99.90;0.50;97818.00;;;;4954472;28;118686;-69
2024/01/18 01:09:24;;;;;;;9.60;7.13;;;0.80;99.90;0.40;97829.00;;;;4953434;28;118456;-68
2024/01/18 01:11:51;;;;;;;11.67;7.07;;;0.80;99.90;0.40;97833.00;;;;4956409;28;87788;-69
2024/01/18 01:14:18;;;;;;;9.00;6.50;;;0.70;99.90;0.40;97832.00;;;;4956044;28;88078;-69
2024/01/18 01:16:43;;;;;;;13.00;7.13;;;1.20;99.90;0.40;97829.00;;;;4953850;28;109352;-71
2024/01/18 01:19:09;;;;;;;8.47;6.43;;;0.70;99.90;0.40;97840.00;;;;4953812;28;117210;-69
2024/01/18 01:21:35;;;;;;;7.17;5.97;;;0.70;99.90;0.40;97837.00;;;;4959099;28;88029;-69
2024/01/18 01:24:00;;;;;;;10.10;6.00;;;0.80;99.90;0.40;97841.00;;;;4962791;28;109458;-70
2024/01/18 01:26:26;;;;;;;8.07;5.73;;;0.70;99.90;0.40;97853.00;;;;4960567;28;116641;-70
2024/01/18 01:28:52;;;;;;;8.93;6.33;;;0.70;99.90;0.40;97851.00;;;;4958389;28;115887;-70
2024/01/18 01:31:17;;;;;;;11.40;6.17;;;0.60;99.90;0.40;97851.00;;;;4957424;28;96250;-70
2024/01/18 01:33:43;;;;;;;10.27;5.63;;;0.70;99.90;0.40;97853.00;;;;4957013;28;88645;-69
2024/01/18 01:36:09;;;;;;;6.93;5.57;;;1.70;99.90;0.40;97863.00;;;;4958013;28;87985;-70
2024/01/18 01:38:34;;;;;;;13.43;6.77;;;0.60;99.90;0.30;97870.00;;;;4963983;28;117811;-70
2024/01/18 01:41:02;;;;;;;8.57;6.30;;;0.60;99.90;0.30;97877.00;;;;4959949;28;111136;-70
2024/01/18 01:43:28;;;;;;;13.73;6.73;;;0.70;99.90;0.30;97885.00;;;;4963819;28;88128;-69
2024/01/18 01:45:54;;;;;;;9.27;5.90;;;0.70;99.90;0.30;97877.00;;;;4960224;28;88280;-70
2024/01/18 01:48:19;;;;;;;13.23;6.20;;;0.70;99.90;0.30;97887.00;;;;4962584;28;88206;-69
2024/01/18 01:50:47;;;;;;;8.57;5.87;;;0.60;99.90;0.30;97898.00;;;;4959771;28;109076;-69
2024/01/18 01:53:15;;;;;;;9.47;5.60;;;0.70;99.90;0.30;97900.00;;;;4954180;28;87950;-69
2024/01/18 01:55:43;;;;;;;10.00;7.23;;;0.70;99.90;0.30;97915.00;;;;4960770;28;89132;-69
2024/01/18 01:58:10;;;;;;;10.50;6.10;;;0.70;99.90;0.30;97929.00;;;;4951482;28;104515;-69
2024/01/18 02:00:37;;;;;;;9.50;5.13;;;-0.30;99.90;0.20;97923.00;;;;4963552;28;87938;-70
2024/01/18 02:03:03;;;;;;;11.87;6.50;;;0.70;99.90;0.20;97934.00;;;;4956731;28;95973;-69
2024/01/18 02:05:30;;;;;;;11.97;6.50;;;0.70;99.90;0.20;97937.00;;;;4963132;28;109911;-69
2024/01/18 02:07:55;;;;;;;10.63;6.53;;;1.50;99.90;0.20;97927.00;;;;4957395;28;117404;-69
2024/01/18 02:10:22;;;;;;;10.60;7.37;;;0.50;99.90;0.20;97936.00;;;;4959730;28;108947;-70
2024/01/18 02:12:51;;;;;;;8.93;6.53;;;0.40;99.90;0.20;97932.00;;;;4958920;28;96524;-69
2024/01/18 02:15:17;;;;;;;9.67;6.70;;;0.40;99.90;0.20;97935.00;;;;4957197;28;88876;-69
2024/01/18 02:17:43;;;;;;;9.10;6.33;;;0.60;99.90;0.10;97935.00;;;;4951522;28;106503;-69
2024/01/18 02:20:10;;;;;;;7.90;6.50;;;0.60;99.90;0.10;97953.00;;;;4959114;28;88603;-70
2024/01/18 02:22:41;;;;;;;13.67;6.93;;;0.50;99.90;0.10;97954.00;;;;4957504;28;102351;-70
2024/01/18 02:25:22;;;;;;;9.77;6.77;;;0.40;99.90;0.10;97961.00;;;;4959798;28;88963;-69
2024/01/18 02:27:48;;;;;;;9.43;6.40;;;0.40;99.90;0.10;97965.00;;;;4947950;28;89480;-69
2024/01/18 02:30:14;;;;;;;11.67;6.57;;;0.40;99.90;0.00;97971.00;;;;4953099;28;104678;-69
2024/01/18 02:32:40;;;;;;;10.20;7.40;;;0.40;99.90;0.00;97967.00;;;;4956375;28;87922;-69
2024/01/18 02:35:06;;;;;;;13.43;8.20;;;0.40;99.90;0.00;97980.00;;;;4957192;28;118112;-69
2024/01/18 02:37:32;;;;;;;8.17;6.27;;;0.40;99.90;0.00;97975.00;;;;4960007;28;88396;-69
2024/01/18 02:39:58;;;;;;;9.30;6.57;;;0.40;99.90;0.00;97985.00;;;;4945465;28;111030;-70
2024/01/18 02:42:24;;;;;;;11.90;7.17;;;0.40;99.90;0.00;97996.00;;;;4956858;28;88446;-69
2024/01/18 02:44:51;;;;;;;10.57;6.87;;;0.40;99.90;0.10;97996.00;;;;4957108;28;89346;-69
2024/01/18 02:47:16;;;;;;;11.03;7.57;;;0.40;99.90;0.00;97989.00;;;;4952638;28;89971;-69
2024/01/18 02:49:42;;;;;;;10.43;6.53;;;0.40;99.90;0.00;97991.00;;;;4962698;28;109445;-69
2024/01/18 02:52:07;;;;;;;9.80;5.80;;;0.40;99.90;0.00;97996.00;;;;4956312;28;108555;-69
2024/01/18 02:54:33;;;;;;;8.37;5.77;;;0.30;99.90;0.00;97998.00;;;;4956957;28;99186;-69
2024/01/18 02:56:59;;;;;;;8.33;5.40;;;0.40;99.90;0.10;98004.00;;;;4952664;28;115611;-69
2024/01/18 02:59:24;;;;;;;7.03;5.77;;;0.40;99.90;0.10;98006.00;;;;4955807;28;108691;-69
2024/01/18 03:01:50;;;;;;;9.63;6.60;;;0.40;99.90;0.00;98001.00;;;;4961262;28;93568;-69
2024/01/18 03:04:16;;;;;;;10.87;6.03;;;0.50;99.90;0.00;98001.00;;;;4957372;28;117007;-69
2024/01/18 03:06:42;;;;;;;8.07;5.40;;;0.40;99.90;0.00;98002.00;;;;4958432;28;89065;-69
2024/01/18 03:09:08;;;;;;;6.90;5.33;;;0.40;99.90;0.00;98002.00;;;;4961053;28;88533;-69
2024/01/18 03:11:33;;;;;;;8.57;5.57;;;0.40;99.90;0.00;98000.00;;;;4966085;28;87926;-69
2024/01/18 03:14:00;;;;;;;7.17;5.57;;;0.40;99.90;0.00;98005.00;;;;4962756;28;115418;-69
2024/01/18 03:16:25;;;;;;;10.77;6.40;;;0.30;99.90;0.00;97993.00;;;;4963331;28;89839;-69
2024/01/18 03:18:51;;;;;;;11.00;5.97;;;0.30;99.90;0.00;98004.00;;;;4980889;28;105077;-69
2024/01/18 03:21:16;;;;;;;10.23;6.03;;;0.40;99.90;0.00;98005.00;;;;4961192;28;108820;-69
2024/01/18 03:23:42;;;;;;;7.63;5.43;;;0.40;99.90;0.00;98002.00;;;;4964546;28;117679;-69
2024/01/18 03:26:08;;;;;;;7.30;5.03;;;0.20;99.90;-0.10;98002.00;;;;4958856;28;114905;-69
2024/01/18 03:28:34;;;;;;;15.07;7.40;;;0.30;99.90;-0.10;98015.00;;;;4970490;28;87784;-69
2024/01/18 03:31:00;;;;;;;10.10;6.63;;;0.30;99.90;-0.10;98016.00;;;;4965237;28;87964;-69
2024/01/18 03:33:25;;;;;;;7.10;4.43;;;0.30;99.90;-0.10;98017.00;;;;4960115;28;118951;-68
2024/01/18 03:35:51;;;;;;;6.97;5.57;;;0.30;99.90;-0.10;98013.00;;;;4962879;28;119198;-68
2024/01/18 03:38:17;;;;;;;5.67;5.10;;;0.40;99.90;-0.10;98033.00;;;;4956817;28;110683;-67
2024/01/18 03:40:42;;;;;;;8.37;4.60;;;0.30;99.90;-0.10;98032.00;;;;4961923;28;88031;-70
2024/01/18 03:43:08;;;;;;;7.73;4.80;;;0.20;99.90;-0.10;98030.00;;;;4959990;28;117807;-69
2024/01/18 03:45:33;;;;;;;5.87;5.03;;;0.10;99.90;-0.20;98032.00;;;;4962288;28;118601;-70
2024/01/18 03:47:59;;;;;;;8.93;5.37;;;0.30;99.90;-0.20;98042.00;;;;4959587;28;108090;-70
2024/01/18 03:50:25;;;;;;;8.23;4.97;;;0.20;99.90;-0.20;98041.00;;;;4961311;28;108946;-69
2024/01/18 03:52:50;;;;;;;11.20;5.70;;;0.20;99.90;-0.20;98044.00;;;;4960559;28;102157;-70
2024/01/18 03:55:16;;;;;;;8.97;5.77;;;0.20;99.90;-0.10;98058.00;;;;4961994;28;117769;-70
2024/01/18 03:57:42;;;;;;;9.00;5.63;;;0.20;99.90;-0.20;98063.00;;;;4958259;28;110865;-69
2024/01/18 04:00:09;;;;;;;8.83;4.83;;;0.20;99.90;-0.20;98053.00;;;;4960976;28;88448;-69
2024/01/18 04:02:35;;;;;;;6.57;5.13;;;0.20;99.90;-0.20;98068.00;;;;4966182;28;87978;-69
2024/01/18 04:05:01;;;;;;;6.37;5.33;;;0.10;99.90;-0.20;98075.00;;;;4966264;28;87943;-69
2024/01/18 04:07:27;;;;;;;9.57;6.07;;;0.20;99.90;-0.20;98069.00;;;;4962767;28;87640;-69
2024/01/18 04:09:53;;;;;;;10.30;7.53;;;0.10;99.90;-0.20;98081.00;;;;4965335;28;87770;-69
2024/01/18 04:12:18;;;;;;;11.27;5.40;;;0.30;99.90;-0.20;98079.00;;;;4962150;28;117613;-69
2024/01/18 04:14:44;;;;;;;9.27;6.50;;;0.20;99.90;-0.20;98076.00;;;;4960195;28;116336;-69
2024/01/18 04:17:13;;;;;;;10.50;6.00;;;0.20;99.90;-0.20;98089.00;;;;4959549;28;88959;-69
2024/01/18 04:19:39;;;;;;;8.37;5.57;;;0.10;99.90;-0.20;98085.00;;;;4963771;28;87477;-69
2024/01/18 04:22:06;;;;;;;13.20;7.37;;;0.20;99.90;-0.20;98105.00;;;;4959868;28;118239;-69
2024/01/18 04:24:32;;;;;;;6.93;6.17;;;0.20;99.90;-0.20;98092.00;;;;4958366;28;91374;-69
2024/01/18 04:26:58;;;;;;;12.10;5.20;;;0.20;99.90;-0.20;98115.00;;;;4964968;28;87746;-69
2024/01/18 04:29:23;;;;;;;7.63;5.07;;;0.20;99.90;-0.30;98111.00;;;;4963484;28;99660;-69
2024/01/18 04:31:49;;;;;;;16.17;7.03;;;0.10;99.90;-0.30;98114.00;;;;4963606;28;117780;-69
2024/01/18 04:34:15;;;;;;;9.00;6.87;;;0.10;99.90;-0.30;98116.00;;;;4965165;28;108590;-69
2024/01/18 04:36:41;;;;;;;10.20;5.97;;;0.20;99.90;-0.30;98111.00;;;;4965022;28;110877;-69
2024/01/18 04:39:06;;;;;;;10.57;6.20;;;0.10;99.90;-0.30;98117.00;;;;4958394;28;108172;-69
2024/01/18 04:41:32;;;;;;;15.43;7.10;;;0.10;99.90;-0.30;98126.00;;;;4959822;28;116982;-69
2024/01/18 04:43:58;;;;;;;10.83;7.03;;;0.10;99.90;-0.20;98124.00;;;;4965669;28;87778;-69
2024/01/18 04:46:25;;;;;;;8.90;6.50;;;0.10;99.90;-0.30;98130.00;;;;4958577;28;102299;-69
2024/01/18 04:48:51;;;;;;;12.87;7.50;;;0.20;99.90;-0.30;98134.00;;;;4962524;28;109102;-69
2024/01/18 04:51:18;;;;;;;7.87;5.53;;;0.20;99.90;-0.30;98129.00;;;;4958367;28;88522;-69
2024/01/18 04:53:43;;;;;;;11.47;6.67;;;0.10;99.90;-0.30;98114.00;;;;4959012;28;88488;-69
2024/01/18 04:56:09;;;;;;;11.40;9.03;;;0.10;99.90;-0.30;98119.00;;;;4957687;28;110109;-69
2024/01/18 04:58:36;;;;;;;9.50;6.57;;;0.10;99.90;-0.30;98111.00;;;;4951131;28;87915;-69
2024/01/18 05:01:01;;;;;;;11.17;6.97;;;0.10;99.90;-0.30;98112.00;;;;4959624;28;87923;-69
2024/01/18 05:03:27;;;;;;;7.80;6.40;;;0.20;99.90;-0.30;98116.00;;;;4961415;28;88397;-69
2024/01/18 05:05:56;;;;;;;11.77;5.47;;;0.10;99.90;-0.30;98112.00;;;;4964035;28;101483;-69
2024/01/18 05:08:22;;;;;;;8.27;5.40;;;0.20;99.90;-0.30;98105.00;;;;4962337;28;87772;-69
2024/01/18 05:10:48;;;;;;;14.83;7.23;;;0.10;99.90;-0.30;98103.00;;;;4963829;28;89954;-70
2024/01/18 05:13:14;;;;;;;15.10;7.67;;;0.50;99.90;-0.30;98092.00;;;;4966358;28;92966;-70
2024/01/18 05:15:39;;;;;;;9.03;5.80;;;0.10;99.90;-0.40;98101.00;;;;4980475;28;110128;-70
2024/01/18 05:18:06;;;;;;;7.87;5.77;;;0.10;99.90;-0.40;98102.00;;;;4962978;28;108416;-70
2024/01/18 05:20:35;;;;;;;11.23;7.10;;;0.00;99.90;-0.50;98100.00;;;;4964634;28;88554;-69
2024/01/18 05:23:01;;;;;;;11.40;7.40;;;0.00;99.90;-0.60;98106.00;;;;4962373;28;101877;-69
2024/01/18 05:25:26;;;;;;;8.50;6.17;;;-0.20;99.90;-0.60;98119.00;;;;4957955;28;111186;-69
2024/01/18 05:27:52;;;;;;;11.53;7.73;;;-0.20;99.90;-0.70;98139.00;;;;4960368;28;87136;-70
2024/01/18 05:30:20;;;;;;;15.83;9.93;;;-0.30;99.90;-0.70;98151.00;;;;4955165;28;117869;-70
2024/01/18 05:32:46;;;;;;;20.60;10.13;;;-0.20;99.90;-0.70;98146.00;;;;4966473;28;88521;-69
2024/01/18 05:35:12;;;;;;;12.70;8.20;;;-0.20;99.90;-0.70;98151.00;;;;4954799;28;110812;-69
2024/01/18 05:37:38;;;;;;;13.83;8.73;;;0.50;99.90;-0.60;98153.00;;;;4955148;28;108690;-69
2024/01/18 05:40:06;;;;;;;14.77;9.17;;;-0.20;99.90;-0.60;98165.00;;;;4958051;28;88638;-69
2024/01/18 05:42:32;;;;;;;14.30;9.23;;;-0.20;99.90;-0.60;98180.00;;;;4947338;28;88581;-69
2024/01/18 05:44:59;;;;;;;14.43;8.20;;;-0.20;99.90;-0.60;98188.00;;;;4968977;28;87343;-69
2024/01/18 05:47:24;;;;;;;16.27;7.73;;;-0.30;99.90;-0.60;98184.00;;;;4957523;28;87226;-69
2024/01/18 05:49:50;;;;;;;13.43;7.33;;;-0.30;99.90;-0.60;98185.00;;;;4949381;28;116885;-69
2024/01/18 05:52:16;;;;;;;13.43;8.87;;;-0.30;99.90;-0.60;98181.00;;;;4964372;28;94969;-69
2024/01/18 05:54:42;;;;;;;10.63;7.83;;;-0.20;99.90;-0.60;98186.00;;;;4950674;28;87472;-69
2024/01/18 05:57:08;;;;;;;11.97;8.57;;;-0.20;99.90;-0.60;98177.00;;;;4950396;28;87496;-69
2024/01/18 05:59:33;;;;;;;15.80;7.57;;;-0.30;99.90;-0.60;98194.00;;;;4955182;28;88527;-69
2024/01/18 06:01:59;;;;;;;12.20;7.57;;;-0.20;99.90;-0.60;98198.00;;;;4954445;28;114940;-69
2024/01/18 06:04:26;;;;;;;12.30;7.57;;;-0.20;99.90;-0.60;98202.00;;;;4954619;28;87908;-69
2024/01/18 06:06:52;;;;;;;10.77;8.00;;;-0.20;99.90;-0.60;98209.00;;;;4955169;28;87729;-69
2024/01/18 06:09:18;;;;;;;11.83;8.17;;;-0.20;99.90;-0.60;98203.00;;;;4953595;28;113722;-69
2024/01/18 06:11:45;;;;;;;12.73;8.27;;;-0.20;99.90;-0.60;98196.00;;;;4953768;28;118233;-69
2024/01/18 06:14:12;;;;;;;8.47;7.33;;;-0.20;99.90;-0.50;98206.00;;;;4954205;28;87961;-70
2024/01/18 06:16:38;;;;;;;12.73;8.20;;;-0.10;99.90;-0.50;98199.00;;;;4956139;28;87012;-69
2024/01/18 06:19:04;;;;;;;11.27;8.97;;;1.00;99.90;-0.50;98196.00;;;;4955884;28;87383;-69
2024/01/18 06:21:30;;;;;;;14.00;7.57;;;-0.20;99.90;-0.50;98197.00;;;;4953195;28;90172;-69
2024/01/18 06:23:56;;;;;;;13.13;8.47;;;-0.10;99.90;-0.50;98206.00;;;;4953160;28;88047;-69
2024/01/18 06:26:22;;;;;;;12.10;7.13;;;-0.10;99.90;-0.50;98213.00;;;;4972940;28;92192;-69
2024/01/18 06:28:47;;;;;;;13.60;8.93;;;0.10;99.90;-0.50;98196.00;;;;4937782;28;116682;-69
2024/01/18 06:31:13;;;;;;;9.70;8.70;;;0.70;99.90;-0.50;98206.00;;;;4954036;28;117515;-69
2024/01/18 06:33:40;;;;;;;16.10;8.23;;;0.50;99.90;-0.50;98213.00;;;;4958488;28;87039;-69
2024/01/18 06:36:09;;;;;;;9.50;7.10;;;0.70;99.90;-0.50;98218.00;;;;4962767;28;87450;-69
2024/01/18 06:38:34;;;;;;;11.30;7.63;;;-0.10;99.90;-0.50;98230.00;;;;4966660;28;87390;-69
2024/01/18 06:41:01;;;;;;;13.43;7.30;;;-1.30;99.90;-0.50;98219.00;;;;4955941;28;103487;-69
2024/01/18 06:43:26;;;;;;;14.67;7.83;;;0.90;99.90;-0.60;98225.00;;;;4976068;28;87628;-69
2024/01/18 06:45:55;;;;;;;14.37;8.53;;;0.00;99.90;-0.50;98238.00;;;;4954526;28;87212;-68
2024/01/18 06:48:24;;;;;;;18.13;9.20;;;-0.20;99.90;-0.50;98229.00;;;;4963936;28;89113;-69
2024/01/18 06:50:53;;;;;;;12.00;8.23;;;-0.10;99.90;-0.60;98231.00;;;;4956249;28;88095;-69
2024/01/18 06:53:19;;;;;;;15.63;10.87;;;0.30;99.90;-0.60;98227.00;;;;4976240;28;87097;-68
2024/01/18 06:55:45;;;;;;;13.23;9.30;;;-0.20;99.90;-0.60;98227.00;;;;4958554;28;87518;-68
2024/01/18 06:58:11;;;;;;;12.87;8.50;;;-0.20;99.90;-0.60;98219.00;;;;4963507;28;102080;-69
2024/01/18 07:00:37;;;;;;;13.33;7.87;;;-0.20;99.90;-0.70;98235.00;;;;4975499;28;117206;-69
2024/01/18 07:03:03;;;;;;;9.03;7.23;;;0.30;99.90;-0.60;98232.00;;;;4966628;28;93728;-68
2024/01/18 07:05:28;;;;;;;15.87;8.73;;;-0.20;99.90;-0.60;98223.00;;;;4981863;28;86401;-70
2024/01/18 07:07:54;;;;;;;13.33;8.37;;;-0.30;99.90;-0.60;98245.00;;;;4958309;28;117318;-70
2024/01/18 07:10:23;;;;;;;12.07;8.50;;;-0.30;99.90;-0.60;98261.00;;;;4980961;28;92570;-70
2024/01/18 07:12:48;;;;;;;14.30;9.10;;;-0.30;99.90;-0.60;98254.00;;;;4961654;28;88768;-69
2024/01/18 07:15:14;;;;;;;10.90;7.87;;;-0.20;99.90;-0.50;98259.00;;;;4960996;28;108575;-70
2024/01/18 07:17:40;;;;;;;12.30;7.83;;;-0.30;99.90;-0.50;98258.00;;;;4980456;28;116770;-69
2024/01/18 07:20:06;;;;;;;15.03;7.93;;;-0.20;99.90;-0.50;98255.00;;;;4959804;28;116048;-69
2024/01/18 07:22:32;;;;;;;16.83;8.50;;;-0.20;99.90;-0.50;98261.00;;;;4954154;28;87390;-69
2024/01/18 07:24:58;;;;;;;10.77;7.57;;;-0.20;99.90;-0.50;98266.00;;;;4958712;28;87244;-69
2024/01/18 07:27:24;;;;;;;14.20;8.27;;;-0.10;99.90;-0.60;98272.00;;;;4950928;28;88026;-69
2024/01/18 07:29:50;;;;;;;10.30;7.33;;;-0.20;99.90;-0.60;98266.00;;;;4968260;28;87362;-69
2024/01/18 07:32:17;;;;;;;14.40;9.33;;;0.10;99.90;-0.60;98264.00;;;;4974070;28;88309;-69
2024/01/18 07:34:44;;;;;;;10.13;7.80;;;0.60;99.90;-0.60;98267.00;;;;4967056;28;87628;-69
2024/01/18 07:37:13;;;;;;;12.03;8.03;;;-0.20;99.90;-0.50;98264.00;;;;4965650;28;88391;-69
2024/01/18 07:39:40;;;;;;;14.50;8.23;;;-0.10;99.90;-0.50;98264.00;;;;4986204;28;88304;-69
2024/01/18 07:42:07;;;;;;;9.83;8.37;;;-0.10;99.90;-0.50;98275.00;;;;4962075;28;87534;-70
2024/01/18 07:44:33;;;;;;;10.67;8.13;;;-0.10;99.90;-0.50;98288.00;;;;4955586;28;87161;-69
2024/01/18 07:46:59;;;;;;;15.50;9.93;;;-0.10;99.90;-0.50;98285.00;;;;4965931;28;87798;-70
2024/01/18 07:49:24;;;;;;;13.10;8.20;;;-0.10;99.90;-0.50;98269.00;;;;4955368;28;107878;-69
2024/01/18 07:51:50;;;;;;;15.43;8.83;;;-0.10;99.90;-0.40;98267.00;;;;4961476;28;87192;-69
2024/01/18 07:54:16;;;;;;;15.33;9.50;;;-0.20;99.90;-0.40;98273.00;;;;4959433;28;86841;-69
2024/01/18 07:56:42;;;;;;;15.57;9.23;;;0.00;99.90;-0.40;98280.00;;;;4979262;28;87110;-69
2024/01/18 07:59:08;;;;;;;20.87;10.57;;;0.00;99.90;-0.40;98283.00;;;;4958116;28;113271;-69
2024/01/18 08:01:34;;;;;;;12.77;9.13;;;0.10;99.90;-0.40;98289.00;;;;4959208;28;88481;-68
2024/01/18 08:04:00;;;;;;;11.93;8.47;;;0.00;99.90;-0.40;98281.00;;;;4961968;28;103721;-67
2024/01/18 08:06:25;;;;;;;17.10;10.60;;;0.00;99.90;-0.40;98293.00;;;;4964759;28;117925;-69
2024/01/18 08:08:51;;;;;;;16.53;10.17;;;0.00;99.90;-0.30;98289.00;;;;4976912;28;97527;-69
2024/01/18 08:11:17;;;;;;;17.07;10.63;;;0.00;99.90;-0.30;98298.00;;;;4959063;28;98740;-71
2024/01/18 08:13:43;;;;;;;12.73;8.70;;;0.80;99.90;-0.30;98293.00;;;;4963650;28;87554;-69
2024/01/18 08:16:09;;;;;;;11.83;8.73;;;0.20;99.90;-0.30;98279.00;;;;4966645;28;94499;-70
2024/01/18 08:18:36;;;;;;;12.20;8.80;;;0.10;99.90;-0.20;98285.00;;;;4961071;28;87407;-70
2024/01/18 08:21:04;;;;;;;13.63;8.77;;;0.10;99.90;-0.20;98296.00;;;;4964768;28;87555;-69
2024/01/18 08:23:30;;;;;;;13.83;8.53;;;0.10;99.90;-0.20;98304.00;;;;4961254;28;95467;-69
2024/01/18 08:25:56;;;;;;;14.93;8.87;;;0.90;99.90;-0.20;98301.00;;;;4943668;28;88735;-70
2024/01/18 08:28:23;;;;;;;13.23;8.37;;;1.00;99.90;-0.20;98294.00;;;;4962658;28;87982;-69
2024/01/18 08:30:49;;;;;;;12.67;8.57;;;0.10;99.90;-0.20;98294.00;;;;4963803;28;87190;-70
2024/01/18 08:33:15;;;;;;;15.43;9.87;;;0.30;99.90;-0.10;98290.00;;;;4980094;28;87430;-70
2024/01/18 08:35:41;;;;;;;16.87;9.73;;;0.10;99.90;-0.10;98288.00;;;;4962006;28;87479;-70
2024/01/18 08:38:07;;;;;;;17.63;9.83;;;0.20;99.90;-0.10;98296.00;;;;4959305;28;87928;-70
2024/01/18 08:40:34;;;;;;;14.50;9.53;;;0.20;99.90;-0.10;98296.00;;;;4964671;28;87792;-69
2024/01/18 08:43:00;;;;;;;16.83;8.40;;;0.30;99.90;0.00;98293.00;;;;4960631;28;86681;-69
2024/01/18 08:45:26;;;;;;;11.33;8.73;;;0.30;99.90;0.00;98309.00;;;;4964644;28;88457;-71
2024/01/18 08:47:52;;;;;;;14.50;9.23;;;0.40;99.90;0.00;98326.00;;;;4954693;28;99516;-70
2024/01/18 08:50:19;;;;;;;13.10;8.80;;;0.40;99.90;0.00;98307.00;;;;4956516;28;88728;-70
2024/01/18 08:52:45;;;;;;;12.80;9.03;;;0.40;99.90;0.10;98302.00;;;;4957812;28;87985;-70
2024/01/18 08:55:10;;;;;;;13.77;8.90;;;0.30;99.90;0.10;98311.00;;;;4960876;28;89039;-71
2024/01/18 08:57:36;;;;;;;11.93;7.27;;;0.30;99.90;0.10;98298.00;;;;4961552;28;116607;-70
2024/01/18 09:00:04;;;;;;;12.90;8.93;;;0.40;99.90;0.10;98310.00;;;;4963788;28;98118;-70
2024/01/18 09:02:30;;;;;;;11.30;8.27;;;0.40;99.90;0.10;98319.00;;;;4962595;28;88038;-69
2024/01/18 09:04:56;;;;;;;12.63;9.43;;;0.50;99.90;0.10;98341.00;;;;4958410;28;87918;-70
2024/01/18 09:07:23;;;;;;;11.33;7.13;;;0.40;99.90;0.10;98346.00;;;;4964223;28;116077;-71
2024/01/18 09:09:49;;;;;;;14.50;7.50;;;0.50;99.90;0.00;98366.00;;;;4960864;28;87931;-71
2024/01/18 09:12:15;;;;;;;13.30;8.87;;;0.40;99.90;0.00;98365.00;;;;4958778;28;97272;-72
2024/01/18 09:14:42;;;;;;;13.67;8.57;;;0.30;99.90;0.00;98376.00;;;;4955710;28;89698;-71
2024/01/18 09:17:09;;;;;;;14.63;8.73;;;0.30;99.90;-0.10;98368.00;;;;4958454;28;88914;-70
2024/01/18 09:19:35;;;;;;;12.37;8.50;;;0.30;99.90;-0.10;98377.00;;;;4959896;28;87773;-72
2024/01/18 09:22:01;;;;;;;12.47;7.63;;;0.40;99.90;-0.10;98397.00;;;;4958373;28;87674;-71
2024/01/18 09:24:27;;;;;;;18.97;12.27;;;0.20;99.90;-0.10;98400.00;;;;4958987;28;94829;-71
2024/01/18 09:26:53;;;;;;;20.63;9.83;;;0.30;99.90;-0.10;98393.00;;;;4961981;28;111004;-71
2024/01/18 09:29:18;;;;;;;11.50;5.50;;;0.30;99.90;-0.20;98411.00;;;;4961835;28;113517;-71
2024/01/18 09:31:45;;;;;;;13.50;8.77;;;0.30;99.90;-0.20;98407.00;;;;4951935;28;87525;-70
2024/01/18 09:34:11;;;;;;;14.20;7.93;;;0.20;99.90;-0.10;98423.00;;;;4958782;28;89028;-70
2024/01/18 09:36:37;;;;;;;12.80;8.23;;;0.30;99.90;-0.10;98413.00;;;;4959066;28;88351;-70
2024/01/18 09:39:08;;;;;;;16.83;9.37;;;0.30;99.90;-0.10;98425.00;;;;4961501;28;93889;-71
2024/01/18 09:41:35;;;;;;;13.63;8.33;;;0.20;99.90;-0.10;98428.00;;;;4959127;28;87940;-70
2024/01/18 09:44:03;;;;;;;17.00;8.27;;;0.20;99.90;-0.10;98427.00;;;;4960706;28;89311;-70
2024/01/18 09:46:30;;;;;;;15.23;9.03;;;0.50;99.90;-0.10;98432.00;;;;4965781;28;106098;-71
2024/01/18 09:48:57;;;;;;;13.93;8.53;;;0.20;99.90;0.00;98428.00;;;;4961885;28;88152;-70
2024/01/18 09:51:23;;;;;;;12.97;9.23;;;0.40;99.90;0.00;98418.00;;;;4961698;28;91135;-71
2024/01/18 09:53:54;;;;;;;9.93;6.70;;;0.30;99.90;0.10;98430.00;;;;4970331;28;118318;-69
2024/01/18 09:56:28;;;;;;;13.30;9.10;;;0.30;99.90;0.10;98440.00;;;;4964358;28;88580;-69
2024/01/18 09:58:55;;;;;;;13.63;7.23;;;0.40;99.90;0.20;98454.00;;;;4959731;28;87663;-69
2024/01/18 10:01:23;;;;;;;14.17;8.80;;;0.50;99.90;0.20;98443.00;;;;4961677;28;96709;-68
2024/01/18 10:03:50;;;;;;;9.13;6.97;;;0.50;99.90;0.20;98445.00;;;;4954979;28;88840;-70
2024/01/18 10:06:19;;;;;;;14.90;7.30;;;0.50;99.90;0.20;98445.00;;;;4961196;28;88941;-68
2024/01/18 10:08:46;;;;;;;11.47;7.87;;;0.50;99.90;0.20;98463.00;;;;4963589;28;88099;-70
2024/01/18 10:11:11;;;;;;;10.40;6.77;;;0.50;99.90;0.20;98454.00;;;;4963323;28;87577;-70
2024/01/18 10:13:54;;;;;;;9.80;7.23;;;1.20;99.90;0.20;98445.00;;;;4958389;28;117161;-69
2024/01/18 10:16:35;;;;;;;11.00;7.50;;;0.60;99.90;0.20;98452.00;;;;4962971;28;88030;-69
2024/01/18 10:19:05;;;;;;;13.60;7.67;;;0.60;99.90;0.20;98464.00;;;;4980019;28;87913;-69
2024/01/18 10:21:33;;;;;;;18.00;9.33;;;0.40;99.90;0.30;98466.00;;;;4961954;28;87037;-69
2024/01/18 10:24:01;;;;;;;10.67;8.13;;;0.60;99.90;0.40;98466.00;;;;4977367;28;98025;-68
2024/01/18 10:26:31;;;;;;;11.90;8.20;;;2.50;99.90;0.40;98460.00;;;;4961317;28;109035;-69
2024/01/18 10:28:57;;;;;;;12.50;6.73;;;0.80;99.90;0.50;98457.00;;;;4962957;28;88741;-68
2024/01/18 10:31:24;;;;;;;12.23;8.63;;;0.80;99.90;0.50;98457.00;;;;4962485;28;87709;-68
2024/01/18 10:33:50;;;;;;;9.60;6.33;;;0.90;99.90;0.60;98469.00;;;;4960067;28;108151;-68
2024/01/18 10:36:15;;;;;;;12.63;7.43;;;0.90;99.90;0.60;98475.00;;;;4973168;28;88879;-69
2024/01/18 10:38:41;;;;;;;13.17;7.93;;;0.70;99.90;0.70;98476.00;;;;4964614;28;109454;-70
2024/01/18 10:41:08;;;;;;;14.13;8.23;;;1.20;99.90;0.70;98471.00;;;;4961762;28;88052;-70
2024/01/18 10:43:35;;;;;;;11.97;7.77;;;1.00;99.90;0.70;98476.00;;;;4962253;28;116936;-69
2024/01/18 10:46:02;;;;;;;10.47;7.10;;;1.00;99.90;0.80;98477.00;;;;4961640;28;87324;-69
2024/01/18 10:48:33;;;;;;;10.07;7.20;;;1.00;99.90;0.80;98485.00;;;;4956538;28;88054;-69
2024/01/18 10:51:01;;;;;;;11.10;7.73;;;1.10;99.90;0.80;98468.00;;;;4956562;28;88048;-69